Time;durP1;ratioP1;P1;durP2;ratioP2;P2;SDS_P1;SDS_P2;PMS_P1;PMS_P2;Temp;Humidity;BMP_temperature;BMP_pressure;BME280_temperature;BME280_humidity;BME280_pressure;Samples;Min_cycle;Max_cycle;Signal;HPM_P1;HPM_P2
2022/06/09 00:01:16;;;;;;;9.05;1.88;;;14.10;99.90;;;;;;4998215;28;20168;-70
2022/06/09 00:03:48;;;;;;;16.17;2.80;;;14.10;99.90;;;;;;4992208;28;20092;-70
2022/06/09 00:06:14;;;;;;;11.75;2.47;;;14.10;99.90;;;;;;4997795;28;20061;-70
2022/06/09 00:08:43;;;;;;;12.70;1.98;;;14.10;99.90;;;;;;4996071;28;20398;-70
2022/06/09 00:11:14;;;;;;;19.30;1.85;;;14.10;99.90;;;;;;4998741;28;20038;-69
2022/06/09 00:13:41;;;;;;;15.20;1.77;;;14.10;99.90;;;;;;4993088;28;20035;-70
2022/06/09 00:16:09;;;;;;;13.85;1.80;;;14.00;99.90;;;;;;4998422;28;20552;-70
2022/06/09 00:18:34;;;;;;;16.73;1.55;;;14.00;99.90;;;;;;4991516;28;20034;-70
2022/06/09 00:21:01;;;;;;;20.23;2.75;;;14.00;99.90;;;;;;4998184;28;20099;-69
2022/06/09 00:23:26;;;;;;;17.65;2.25;;;14.00;99.90;;;;;;4994291;28;20046;-70
2022/06/09 00:25:52;;;;;;;16.17;2.03;;;13.90;99.90;;;;;;4997988;28;20038;-70
2022/06/09 00:28:18;;;;;;;10.60;2.00;;;13.90;99.90;;;;;;4997321;28;20095;-69
2022/06/09 00:30:44;;;;;;;13.07;1.80;;;13.90;99.90;;;;;;4996070;28;20113;-69
2022/06/09 00:33:09;;;;;;;13.57;1.73;;;13.80;99.90;;;;;;4995483;28;20132;-70
2022/06/09 00:35:35;;;;;;;18.20;2.20;;;13.90;99.90;;;;;;4994687;28;20129;-70
2022/06/09 00:38:00;;;;;;;12.23;1.73;;;13.80;99.90;;;;;;4990154;28;20057;-70
2022/06/09 00:40:26;;;;;;;8.93;1.70;;;13.80;99.90;;;;;;4995817;28;20057;-71
2022/06/09 00:42:52;;;;;;;17.33;2.42;;;13.70;99.90;;;;;;4994381;28;20037;-70
2022/06/09 00:45:28;;;;;;;14.93;2.60;;;13.70;99.90;;;;;;4999744;28;20405;-70
2022/06/09 00:48:01;;;;;;;9.40;1.85;;;13.70;99.90;;;;;;4998968;28;20034;-70
2022/06/09 00:50:28;;;;;;;8.10;1.75;;;13.70;99.90;;;;;;4996328;28;20053;-70
2022/06/09 00:52:58;;;;;;;11.00;1.70;;;13.60;99.90;;;;;;4995360;28;20096;-70
2022/06/09 00:55:26;;;;;;;10.05;1.58;;;13.60;99.90;;;;;;4997799;28;20046;-69
2022/06/09 00:58:14;;;;;;;12.00;2.75;;;13.60;99.90;;;;;;4993730;28;20033;-71
2022/06/09 01:00:55;;;;;;;9.23;2.00;;;13.60;99.90;;;;;;4998518;28;20550;-70
2022/06/09 01:03:24;;;;;;;12.00;2.00;;;13.50;99.90;;;;;;4997624;28;20076;-70
2022/06/09 01:06:01;;;;;;;11.23;2.10;;;13.50;99.90;;;;;;4994297;28;20030;-69
2022/06/09 01:08:29;;;;;;;7.38;2.08;;;13.50;99.90;;;;;;4996135;28;20072;-70
2022/06/09 01:10:55;;;;;;;9.77;2.30;;;13.50;99.90;;;;;;4995950;28;20058;-70
2022/06/09 01:13:21;;;;;;;15.50;2.80;;;13.40;99.90;;;;;;4998680;28;20076;-70
2022/06/09 01:15:55;;;;;;;8.02;1.40;;;13.40;99.90;;;;;;5000287;28;20533;-71
2022/06/09 01:18:24;;;;;;;10.13;1.77;;;13.40;99.90;;;;;;5001610;28;20394;-70
2022/06/09 01:21:03;;;;;;;16.77;2.10;;;13.40;99.90;;;;;;5000162;28;20109;-70
2022/06/09 01:24:02;;;;;;;14.68;2.20;;;13.40;99.90;;;;;;5002640;28;20038;-70
2022/06/09 01:26:39;;;;;;;11.68;2.15;;;13.30;99.90;;;;;;5010604;28;20133;-70
2022/06/09 01:29:09;;;;;;;17.15;3.13;;;13.30;99.90;;;;;;5012418;28;20042;-70
2022/06/09 01:31:50;;;;;;;11.70;2.42;;;13.30;99.90;;;;;;5002758;28;20113;-70
2022/06/09 01:34:34;;;;;;;10.05;2.22;;;13.30;99.90;;;;;;4997714;28;20026;-70
2022/06/09 01:37:13;;;;;;;11.85;2.63;;;13.30;99.90;;;;;;5009268;28;20367;-70
2022/06/09 01:39:49;;;;;;;12.10;2.15;;;13.30;99.90;;;;;;4996680;28;20026;-70
2022/06/09 01:42:30;;;;;;;6.38;2.05;;;13.20;99.90;;;;;;4999656;28;20038;-70
2022/06/09 01:45:21;;;;;;;7.70;1.95;;;13.20;99.90;;;;;;4999548;28;20030;-70
2022/06/09 01:48:02;;;;;;;;;;;13.20;99.90;;;;;;4994824;28;20049;-70
2022/06/09 01:51:01;;;;;;;10.02;2.08;;;13.20;99.90;;;;;;5004130;28;19924;-70
2022/06/09 01:53:53;;;;;;;7.80;2.00;;;13.20;99.90;;;;;;4991188;28;20046;-70
2022/06/09 01:56:30;;;;;;;8.43;1.88;;;13.10;99.90;;;;;;4999335;28;20030;-70
2022/06/09 01:59:03;;;;;;;10.88;1.90;;;13.10;99.90;;;;;;4997410;28;20050;-70
2022/06/09 02:01:43;;;;;;;9.18;2.80;;;13.10;99.90;;;;;;4999528;28;20129;-70
2022/06/09 02:04:22;;;;;;;9.38;2.20;;;13.00;99.90;;;;;;4995692;28;20180;-70
2022/06/09 02:06:49;;;;;;;9.98;2.20;;;13.00;99.90;;;;;;4998148;28;20029;-70
2022/06/09 02:09:16;;;;;;;12.60;2.28;;;13.00;99.90;;;;;;4997153;28;20168;-70
2022/06/09 02:12:10;;;;;;;8.45;2.17;;;13.00;99.90;;;;;;4999052;28;20034;-70
2022/06/09 02:14:38;;;;;;;8.90;1.73;;;13.00;99.90;;;;;;4994342;28;20038;-70
2022/06/09 02:17:07;;;;;;;11.40;1.90;;;13.00;99.90;;;;;;4999781;28;20066;-70
2022/06/09 02:19:33;;;;;;;7.43;1.90;;;12.90;99.90;;;;;;4997173;28;20053;-69
2022/06/09 02:21:59;;;;;;;7.18;2.08;;;12.90;99.90;;;;;;4998812;28;20614;-70
2022/06/09 02:24:25;;;;;;;5.55;1.70;;;12.90;99.90;;;;;;4995245;28;20030;-70
2022/06/09 02:26:50;;;;;;;10.15;2.00;;;12.90;99.90;;;;;;5000002;28;20031;-70
2022/06/09 02:29:16;;;;;;;6.80;2.00;;;12.90;99.90;;;;;;4997666;28;20588;-69
2022/06/09 02:31:42;;;;;;;10.43;2.35;;;12.90;99.90;;;;;;4998253;28;20030;-70
2022/06/09 02:34:09;;;;;;;18.30;2.75;;;12.90;99.90;;;;;;4997552;28;20030;-70
2022/06/09 02:36:35;;;;;;;10.40;1.70;;;12.90;99.90;;;;;;4996259;28;20033;-70
2022/06/09 02:39:01;;;;;;;10.68;1.58;;;12.90;99.90;;;;;;4999625;28;20045;-70
2022/06/09 02:41:26;;;;;;;6.35;1.80;;;12.90;99.90;;;;;;4997518;28;20034;-70
2022/06/09 02:43:52;;;;;;;13.15;1.52;;;12.90;99.90;;;;;;5001517;28;20052;-71
2022/06/09 02:46:18;;;;;;;10.45;1.40;;;12.90;99.90;;;;;;4999842;28;20045;-70
2022/06/09 02:48:44;;;;;;;7.55;1.63;;;12.90;99.90;;;;;;4997738;28;20514;-70
2022/06/09 02:51:31;;;;;;;6.53;1.52;;;12.90;99.90;;;;;;4996530;28;20121;-70
2022/06/09 02:54:00;;;;;;;6.53;2.05;;;12.90;99.90;;;;;;4991758;28;20076;-70
2022/06/09 02:56:26;;;;;;;3.60;1.20;;;12.90;99.90;;;;;;4999361;28;20096;-71
2022/06/09 02:58:52;;;;;;;6.07;1.55;;;12.90;99.90;;;;;;4999355;28;20056;-73
2022/06/09 03:01:18;;;;;;;4.90;1.80;;;12.90;99.90;;;;;;4997355;28;20050;-70
2022/06/09 03:03:44;;;;;;;10.70;2.28;;;12.90;99.90;;;;;;4996565;28;20538;-70
2022/06/09 03:06:10;;;;;;;13.13;1.77;;;12.90;99.90;;;;;;4998183;28;20132;-70
2022/06/09 03:08:36;;;;;;;4.88;1.58;;;13.00;99.90;;;;;;4997362;28;20133;-70
2022/06/09 03:11:01;;;;;;;11.45;1.77;;;12.90;99.90;;;;;;4998599;28;20045;-70
2022/06/09 03:13:27;;;;;;;11.68;1.90;;;12.90;99.90;;;;;;4995798;28;20031;-70
2022/06/09 03:15:54;;;;;;;7.82;2.17;;;12.90;99.90;;;;;;5000062;28;20038;-70
2022/06/09 03:18:20;;;;;;;5.82;1.40;;;13.00;99.90;;;;;;4996318;28;20034;-70
2022/06/09 03:20:47;;;;;;;10.18;1.70;;;13.00;99.90;;;;;;4998417;28;21172;-70
2022/06/09 03:23:13;;;;;;;6.43;1.83;;;13.00;99.90;;;;;;4996108;28;20116;-69
2022/06/09 03:25:38;;;;;;;4.47;1.65;;;13.00;99.90;;;;;;4999748;28;20747;-70
2022/06/09 03:28:06;;;;;;;5.38;1.30;;;13.00;99.90;;;;;;4996874;28;20053;-70
2022/06/09 03:30:32;;;;;;;6.40;1.48;;;13.00;99.90;;;;;;4997002;28;20064;-70
2022/06/09 03:32:59;;;;;;;9.43;1.40;;;13.00;99.90;;;;;;4995465;28;20471;-70
2022/06/09 03:35:25;;;;;;;9.13;1.30;;;13.00;99.90;;;;;;5000050;28;20104;-70
2022/06/09 03:37:50;;;;;;;6.75;1.35;;;13.00;99.90;;;;;;4993584;28;20613;-70
2022/06/09 03:40:19;;;;;;;7.38;1.77;;;13.00;99.90;;;;;;4991589;28;20026;-70
2022/06/09 03:42:45;;;;;;;7.70;1.98;;;13.00;99.90;;;;;;4994311;28;20034;-69
2022/06/09 03:45:11;;;;;;;7.20;2.65;;;13.00;99.90;;;;;;4997876;28;20414;-70
2022/06/09 03:47:38;;;;;;;6.32;1.13;;;12.90;99.90;;;;;;4996927;28;20033;-70
2022/06/09 03:50:06;;;;;;;6.10;1.10;;;13.00;99.90;;;;;;4998463;28;20037;-70
2022/06/09 03:52:32;;;;;;;6.25;2.05;;;12.90;99.90;;;;;;4996887;28;20117;-70
2022/06/09 03:54:57;;;;;;;5.75;1.50;;;12.90;99.90;;;;;;4995684;28;20061;-70
2022/06/09 03:57:23;;;;;;;4.22;1.23;;;12.90;99.90;;;;;;4999053;28;20561;-69
2022/06/09 03:59:48;;;;;;;3.72;1.25;;;13.00;99.90;;;;;;4995264;28;20038;-70
2022/06/09 04:02:14;;;;;;;10.23;1.40;;;13.00;99.90;;;;;;5000037;28;20042;-70
2022/06/09 04:04:40;;;;;;;7.60;1.17;;;13.00;99.90;;;;;;4996949;28;20034;-70
2022/06/09 04:07:06;;;;;;;9.05;1.25;;;13.00;99.90;;;;;;4997338;28;20041;-70
2022/06/09 04:09:31;;;;;;;11.32;1.55;;;13.00;99.90;;;;;;4996277;28;20042;-70
2022/06/09 04:11:57;;;;;;;5.25;1.08;;;13.10;99.90;;;;;;4997964;28;20041;-70
2022/06/09 04:14:23;;;;;;;5.57;0.98;;;13.20;99.90;;;;;;4995078;28;20019;-70
2022/06/09 04:16:48;;;;;;;5.72;1.58;;;13.20;99.90;;;;;;4998392;28;20034;-70
2022/06/09 04:19:16;;;;;;;14.18;1.45;;;13.30;99.90;;;;;;4995402;28;20085;-69
2022/06/09 04:21:44;;;;;;;3.70;0.93;;;13.40;99.90;;;;;;4998068;28;20027;-70
2022/06/09 04:24:10;;;;;;;8.27;1.88;;;13.50;99.90;;;;;;4997739;28;20030;-70
2022/06/09 04:26:38;;;;;;;8.02;1.27;;;13.60;99.90;;;;;;4999606;28;20026;-70
2022/06/09 04:29:06;;;;;;;11.43;1.00;;;13.60;99.90;;;;;;4996547;28;20092;-70
2022/06/09 04:31:33;;;;;;;4.82;0.88;;;13.60;99.90;;;;;;4993763;28;20039;-70
2022/06/09 04:33:58;;;;;;;12.50;1.05;;;13.70;99.90;;;;;;4986362;28;20037;-70
2022/06/09 04:36:24;;;;;;;6.18;1.27;;;13.70;99.90;;;;;;4992590;28;20487;-69
2022/06/09 04:38:50;;;;;;;8.88;2.13;;;13.80;99.90;;;;;;4993422;28;20058;-70
2022/06/09 04:41:16;;;;;;;2.70;1.20;;;13.80;99.90;;;;;;5005274;28;20107;-70
2022/06/09 04:43:45;;;;;;;10.43;1.52;;;13.90;99.90;;;;;;4993403;28;20518;-70
2022/06/09 04:46:14;;;;;;;3.92;0.75;;;13.90;99.90;;;;;;4993398;28;20726;-70
2022/06/09 04:48:40;;;;;;;5.25;1.10;;;14.00;99.90;;;;;;4992379;28;20026;-70
2022/06/09 04:51:07;;;;;;;4.45;0.80;;;14.00;99.90;;;;;;4995107;28;20029;-70
2022/06/09 04:53:33;;;;;;;5.28;1.35;;;14.10;99.90;;;;;;4995054;28;20049;-70
2022/06/09 04:55:59;;;;;;;3.08;1.30;;;14.20;99.90;;;;;;4998580;28;20113;-70
2022/06/09 04:58:26;;;;;;;4.78;1.00;;;14.30;99.90;;;;;;4987443;28;20681;-69
2022/06/09 05:00:52;;;;;;;7.15;0.73;;;14.30;99.90;;;;;;4995719;28;20035;-69
2022/06/09 05:03:19;;;;;;;6.43;0.90;;;14.40;99.90;;;;;;4992879;28;20112;-70
2022/06/09 05:05:46;;;;;;;3.97;0.60;;;14.40;99.90;;;;;;4993619;28;20036;-70
2022/06/09 05:08:13;;;;;;;6.55;1.08;;;14.50;99.90;;;;;;4992651;28;21504;-69
2022/06/09 05:10:44;;;;;;;2.65;0.52;;;14.60;99.90;;;;;;4997560;28;20558;-70
2022/06/09 05:13:11;;;;;;;3.90;0.50;;;14.70;99.90;;;;;;4994995;28;20038;-70
2022/06/09 05:15:44;;;;;;;4.97;0.55;;;14.80;99.90;;;;;;5000346;28;20038;-70
2022/06/09 05:18:11;;;;;;;5.40;0.82;;;14.90;99.90;;;;;;4998473;28;20038;-70
2022/06/09 05:20:36;;;;;;;3.38;0.60;;;15.00;99.90;;;;;;5002131;28;20034;-70
2022/06/09 05:23:02;;;;;;;2.83;0.52;;;15.20;99.90;;;;;;4999333;28;20034;-70
2022/06/09 05:25:28;;;;;;;4.25;1.02;;;15.40;99.90;;;;;;4998478;28;20104;-70
2022/06/09 05:27:53;;;;;;;0.93;0.30;;;15.40;99.90;;;;;;4996400;28;20069;-70
2022/06/09 05:30:23;;;;;;;4.80;0.57;;;15.40;99.90;;;;;;4995309;28;20128;-70
2022/06/09 05:32:49;;;;;;;3.58;0.63;;;15.40;99.90;;;;;;4993445;28;20653;-70
2022/06/09 05:35:16;;;;;;;4.70;0.90;;;15.40;99.90;;;;;;4995530;28;20033;-70
2022/06/09 05:45:59;;;;;;;4.50;0.40;;;16.50;99.90;;;;;;5023450;28;20044;-69
2022/06/09 05:48:25;;;;;;;2.25;0.73;;;16.80;99.90;;;;;;5026599;28;20424;-70
2022/06/09 05:50:51;;;;;;;2.40;0.70;;;16.90;99.90;;;;;;5004750;28;20605;-71
2022/06/09 05:53:16;;;;;;;2.05;0.50;;;16.70;99.90;;;;;;5030177;28;20049;-70
2022/06/09 05:55:42;;;;;;;5.15;0.50;;;16.80;99.90;;;;;;5027504;28;20052;-69
2022/06/09 05:58:08;;;;;;;9.23;1.08;;;17.30;99.90;;;;;;5026275;28;20083;-70
2022/06/09 06:00:34;;;;;;;1.58;0.52;;;17.80;99.90;;;;;;5026185;28;20045;-72
2022/06/09 06:03:00;;;;;;;5.80;1.33;;;18.20;99.90;;;;;;5014971;28;20042;-70
2022/06/09 06:08:09;;;;;;;4.82;0.60;;;18.00;99.90;;;;;;5024285;28;20068;-71
2022/06/09 06:10:35;;;;;;;4.65;0.28;;;17.80;99.90;;;;;;5028219;28;20030;-70
2022/06/09 06:13:00;;;;;;;5.28;0.43;;;17.90;99.90;;;;;;5024166;28;20042;-71
2022/06/09 06:15:26;;;;;;;2.65;0.60;;;17.70;99.90;;;;;;5007572;28;20121;-73
2022/06/09 06:17:56;;;;;;;3.90;1.23;;;17.50;99.90;;;;;;5026708;28;20045;-71
2022/06/09 06:20:22;;;;;;;;;;;17.40;99.90;;;;;;5028717;28;20102;-71
2022/06/09 06:22:48;;;;;;;4.90;0.80;;;17.30;99.90;;;;;;5024674;28;19916;-70
2022/06/09 06:25:13;;;;;;;1.75;0.63;;;17.20;99.90;;;;;;5026720;28;20071;-70
2022/06/09 06:27:39;;;;;;;3.65;0.50;;;17.10;99.90;;;;;;5029426;28;20116;-71
2022/06/09 06:30:06;;;;;;;3.40;0.70;;;16.90;99.90;;;;;;5030516;28;20048;-71
2022/06/09 06:32:31;;;;;;;4.38;0.77;;;16.80;99.90;;;;;;5028255;28;20581;-70
2022/06/09 06:34:57;;;;;;;4.65;0.73;;;16.70;99.90;;;;;;5027703;28;20121;-71
2022/06/09 06:37:23;;;;;;;2.78;0.73;;;16.60;99.90;;;;;;5030177;28;20037;-70
2022/06/09 06:39:49;;;;;;;4.05;0.73;;;16.50;99.90;;;;;;5008338;28;20041;-71
2022/06/09 06:42:15;;;;;;;4.53;0.68;;;16.30;99.90;;;;;;5020991;28;20061;-72
2022/06/09 06:44:40;;;;;;;4.20;1.20;;;16.20;99.90;;;;;;5007013;28;20120;-71
2022/06/09 06:47:06;;;;;;;2.83;0.93;;;16.10;99.90;;;;;;5027127;28;20057;-71
2022/06/09 06:49:32;;;;;;;3.53;0.90;;;16.10;99.90;;;;;;5030634;28;20033;-70
2022/06/09 06:51:57;;;;;;;3.42;0.68;;;16.10;99.90;;;;;;5024803;28;20314;-70
2022/06/09 06:54:23;;;;;;;4.53;0.77;;;16.10;99.90;;;;;;5024141;28;20029;-70
2022/06/09 06:56:48;;;;;;;6.13;0.88;;;16.00;99.90;;;;;;5023692;28;20103;-70
2022/06/09 06:59:14;;;;;;;4.07;0.75;;;16.10;99.90;;;;;;5029211;28;20141;-71
2022/06/09 07:01:40;;;;;;;4.65;0.88;;;16.20;99.90;;;;;;5025382;28;20485;-70
2022/06/09 07:04:05;;;;;;;2.72;0.75;;;16.30;99.90;;;;;;5026112;28;20029;-70
2022/06/09 07:06:31;;;;;;;2.83;0.70;;;16.40;99.90;;;;;;5007927;28;20037;-70
2022/06/09 07:08:56;;;;;;;2.28;0.80;;;16.50;99.90;;;;;;5024887;28;20095;-69
2022/06/09 07:11:22;;;;;;;2.35;0.60;;;16.50;99.90;;;;;;5023139;28;20473;-69
2022/06/09 07:13:48;;;;;;;1.95;1.08;;;16.60;99.90;;;;;;5024460;28;20523;-71
2022/06/09 07:16:14;;;;;;;2.25;0.80;;;16.60;99.90;;;;;;5007533;28;20045;-70
2022/06/09 07:18:39;;;;;;;3.85;1.20;;;16.60;99.90;;;;;;5006762;28;20040;-70
2022/06/09 07:21:06;;;;;;;3.97;1.17;;;16.80;99.90;;;;;;5023524;28;20117;-69
2022/06/09 07:23:32;;;;;;;1.60;0.60;;;17.20;99.90;;;;;;5026648;28;20086;-69
2022/06/09 07:25:58;;;;;;;4.55;0.82;;;18.40;99.90;;;;;;5029301;28;20099;-70
2022/06/09 07:28:25;;;;;;;5.22;1.05;;;19.60;99.90;;;;;;5006801;28;20095;-70
2022/06/09 07:30:56;;;;;;;4.15;0.40;;;20.30;99.90;;;;;;5020877;28;20033;-70
2022/06/09 07:33:33;;;;;;;4.80;1.02;;;20.80;99.90;;;;;;5031045;28;20060;-69
2022/06/09 07:35:59;;;;;;;7.05;0.90;;;21.00;99.90;;;;;;5007756;28;20041;-69
2022/06/09 07:38:27;;;;;;;2.67;0.65;;;21.00;99.90;;;;;;5027211;28;20072;-70
2022/06/09 07:40:54;;;;;;;5.35;0.90;;;21.10;99.90;;;;;;5010595;28;20168;-69
2022/06/09 07:43:20;;;;;;;2.03;0.43;;;21.10;99.90;;;;;;5024713;28;20489;-71
2022/06/09 07:45:46;;;;;;;2.17;0.90;;;20.90;99.90;;;;;;5027324;28;20411;-69
2022/06/09 07:48:12;;;;;;;5.50;1.48;;;20.60;99.90;;;;;;5024072;28;20117;-71
2022/06/09 07:50:38;;;;;;;6.80;1.17;;;20.90;99.90;;;;;;5021029;28;20627;-70
2022/06/09 07:53:05;;;;;;;3.47;1.00;;;20.90;99.90;;;;;;5001962;28;20037;-70
2022/06/09 07:55:32;;;;;;;3.72;0.60;;;20.50;99.90;;;;;;5022547;28;20447;-69
2022/06/09 07:57:58;;;;;;;6.40;1.15;;;20.20;99.90;;;;;;5007758;28;20037;-69
2022/06/09 08:00:24;;;;;;;2.63;0.70;;;20.20;99.90;;;;;;5025652;28;20477;-70
2022/06/09 08:02:50;;;;;;;3.20;0.98;;;21.10;99.90;;;;;;5022563;28;20061;-69
2022/06/09 08:05:18;;;;;;;4.07;0.90;;;21.80;99.90;;;;;;5023106;28;20033;-70
2022/06/09 08:07:44;;;;;;;3.42;1.00;;;22.20;99.90;;;;;;5012301;28;20040;-69
2022/06/09 08:10:13;;;;;;;3.13;0.80;;;22.50;99.90;;;;;;5026045;28;20079;-71
2022/06/09 08:12:39;;;;;;;10.80;0.98;;;22.40;99.90;;;;;;5003328;28;20500;-71
2022/06/09 08:15:05;;;;;;;4.50;0.98;;;22.50;99.90;;;;;;5028946;28;20276;-70
2022/06/09 08:17:31;;;;;;;6.10;1.15;;;22.60;99.90;;;;;;5002859;28;20045;-70
2022/06/09 08:19:57;;;;;;;3.00;0.80;;;22.40;99.90;;;;;;5023693;28;20182;-70
2022/06/09 08:22:23;;;;;;;2.60;0.57;;;22.10;99.90;;;;;;5023910;28;20548;-69
2022/06/09 08:24:48;;;;;;;5.00;0.60;;;21.60;99.90;;;;;;5032469;28;20433;-72
2022/06/09 08:27:14;;;;;;;4.22;0.85;;;21.10;99.90;;;;;;5008230;28;20037;-69
2022/06/09 08:29:40;;;;;;;8.93;1.05;;;20.90;99.90;;;;;;5008171;28;20772;-69
2022/06/09 08:32:06;;;;;;;4.10;1.05;;;21.00;99.90;;;;;;5024406;28;20038;-69
2022/06/09 08:34:32;;;;;;;3.10;0.70;;;20.90;99.90;;;;;;5011641;28;20392;-70
2022/06/09 08:36:58;;;;;;;7.30;0.80;;;20.80;99.90;;;;;;5027860;28;20156;-71
2022/06/09 08:39:24;;;;;;;5.05;0.68;;;20.50;99.90;;;;;;5029821;28;20555;-70
2022/06/09 08:42:00;;;;;;;8.27;0.90;;;20.30;99.90;;;;;;5010960;28;20041;-70
2022/06/09 08:44:47;;;;;;;3.75;0.75;;;20.50;99.90;;;;;;5026989;28;20107;-69
2022/06/09 08:47:34;;;;;;;2.30;0.57;;;20.60;99.90;;;;;;5024015;28;20046;-70
2022/06/09 08:50:03;;;;;;;3.88;0.60;;;20.90;99.90;;;;;;5011692;28;20033;-69
2022/06/09 08:52:44;;;;;;;2.40;0.60;;;21.10;99.90;;;;;;5008400;28;20041;-70
2022/06/09 08:55:35;;;;;;;5.25;1.02;;;21.30;99.90;;;;;;5005600;28;20044;-69
2022/06/09 08:58:28;;;;;;;4.63;0.70;;;21.10;99.90;;;;;;5013799;28;20073;-70
2022/06/09 09:01:12;;;;;;;6.25;0.90;;;21.10;99.90;;;;;;5021481;28;20125;-69
2022/06/09 09:03:48;;;;;;;8.05;0.75;;;21.00;99.90;;;;;;5009710;28;20377;-70
2022/06/09 09:06:40;;;;;;;6.40;0.43;;;21.10;99.90;;;;;;5008374;28;20412;-71
2022/06/09 09:09:17;;;;;;;2.80;0.50;;;21.10;99.90;;;;;;5024465;28;20052;-69
2022/06/09 09:11:52;;;;;;;4.05;0.73;;;21.00;99.90;;;;;;5024968;28;20087;-69
2022/06/09 09:14:28;;;;;;;3.22;0.60;;;20.70;99.90;;;;;;5013758;28;20120;-70
2022/06/09 09:17:34;;;;;;;3.80;0.50;;;20.60;99.90;;;;;;5011159;28;20469;-70
2022/06/09 09:20:14;;;;;;;6.53;0.45;;;20.80;99.90;;;;;;5030982;28;20086;-71
2022/06/09 09:23:04;;;;;;;3.22;0.50;;;20.90;99.90;;;;;;5006249;28;20029;-69
2022/06/09 09:25:29;;;;;;;5.30;0.50;;;20.90;99.90;;;;;;5024044;28;20602;-71
2022/06/09 09:28:12;;;;;;;3.35;0.40;;;20.80;99.90;;;;;;5028950;28;20049;-70
2022/06/09 09:30:53;;;;;;;4.07;0.73;;;20.60;99.90;;;;;;5026242;28;20494;-71
2022/06/09 09:33:20;;;;;;;9.15;1.15;;;20.60;99.90;;;;;;5024516;28;20047;-71
2022/06/09 09:35:50;;;;;;;3.35;0.30;;;20.50;99.90;;;;;;5029063;28;20541;-70
2022/06/09 09:38:18;;;;;;;2.88;0.32;;;20.20;99.90;;;;;;5033674;28;20048;-70
2022/06/09 09:40:47;;;;;;;2.38;0.40;;;20.20;99.90;;;;;;5024736;28;20044;-71
2022/06/09 09:43:21;;;;;;;4.03;0.77;;;20.50;99.90;;;;;;5005580;28;20065;-71
2022/06/09 09:45:53;;;;;;;2.70;0.30;;;20.70;99.90;;;;;;5026126;28;20049;-71
2022/06/09 09:48:21;;;;;;;5.90;0.50;;;20.80;99.90;;;;;;5009934;28;20041;-70
2022/06/09 09:50:47;;;;;;;6.18;0.82;;;21.00;99.90;;;;;;5027971;28;20045;-70
2022/06/09 09:53:19;;;;;;;4.50;0.50;;;20.90;99.90;;;;;;5006618;28;20155;-71
2022/06/09 09:56:05;;;;;;;4.03;0.55;;;21.10;99.90;;;;;;5027345;28;20038;-71
2022/06/09 09:58:33;;;;;;;3.53;0.45;;;21.10;99.90;;;;;;5024525;28;20123;-71
2022/06/09 10:01:34;;;;;;;3.05;0.57;;;21.10;99.90;;;;;;5026762;28;20057;-71
2022/06/09 10:10:10;;;;;;;3.08;0.90;;;21.10;99.90;;;;;;5023085;28;20132;-71
2022/06/09 10:12:37;;;;;;;5.53;0.80;;;21.20;99.90;;;;;;5025312;28;20488;-69
2022/06/09 10:15:10;;;;;;;5.75;0.93;;;21.10;99.90;;;;;;5007150;28;20044;-71
2022/06/09 10:17:57;;;;;;;4.85;0.93;;;21.30;99.90;;;;;;5001518;28;20040;-71
2022/06/09 10:20:32;;;;;;;4.72;0.93;;;21.10;99.90;;;;;;5006180;28;20521;-69
2022/06/09 10:23:01;;;;;;;4.70;0.88;;;21.10;99.90;;;;;;5006480;28;20060;-69
2022/06/09 10:25:33;;;;;;;3.25;0.60;;;21.00;99.90;;;;;;5005044;28;20149;-69
2022/06/09 10:28:30;;;;;;;5.07;0.93;;;21.10;99.90;;;;;;5020905;28;20493;-74
2022/06/09 10:31:18;;;;;;;3.45;0.88;;;21.10;99.90;;;;;;5024262;28;20120;-71
2022/06/09 10:33:54;;;;;;;4.40;0.60;;;21.10;99.90;;;;;;5020487;28;20049;-69
2022/06/09 10:36:22;;;;;;;6.75;1.00;;;21.20;99.90;;;;;;5009789;28;20475;-70
2022/06/09 10:42:21;;;;;;;4.18;0.80;;;20.90;99.90;;;;;;4948862;28;20179;-70
2022/06/09 10:45:03;;;;;;;3.80;0.60;;;20.70;99.90;;;;;;5023431;28;20420;-71
2022/06/09 10:56:49;;;;;;;8.98;1.25;;;21.60;99.90;;;;;;5022355;28;20087;-69
2022/06/09 10:59:31;;;;;;;5.85;0.90;;;22.00;99.90;;;;;;5005456;28;20045;-69
2022/06/09 11:01:57;;;;;;;4.05;0.50;;;22.30;99.90;;;;;;5020543;28;20488;-69
2022/06/09 11:04:24;;;;;;;6.45;0.65;;;22.30;99.90;;;;;;5024481;28;20033;-69
2022/06/09 11:07:10;;;;;;;2.47;0.57;;;22.00;99.90;;;;;;5030364;28;20048;-70
2022/06/09 11:10:00;;;;;;;6.05;1.17;;;21.90;99.90;;;;;;5030327;28;20049;-70
2022/06/09 11:12:51;;;;;;;4.15;0.60;;;21.80;99.90;;;;;;5022719;28;20044;-70
2022/06/09 11:15:32;;;;;;;5.78;0.57;;;21.60;99.90;;;;;;5025697;28;20048;-69
2022/06/09 11:18:22;;;;;;;1.88;0.50;;;21.70;99.90;;;;;;5004651;28;20099;-71
2022/06/09 11:21:06;;;;;;;7.57;1.10;;;22.00;99.90;;;;;;5028453;28;20533;-69
2022/06/09 11:23:31;;;;;;;3.08;0.50;;;22.20;99.90;;;;;;5008761;28;20044;-68
2022/06/09 11:26:27;;;;;;;4.78;0.93;;;22.40;99.90;;;;;;5029283;28;20469;-69
2022/06/09 11:29:04;;;;;;;5.57;1.10;;;22.40;99.90;;;;;;5029391;28;20045;-71
2022/06/09 11:31:52;;;;;;;2.78;0.60;;;22.30;99.90;;;;;;5021279;28;20305;-70
2022/06/09 11:34:23;;;;;;;6.53;0.68;;;22.40;99.90;;;;;;5026285;28;20214;-69
2022/06/09 11:37:16;;;;;;;4.15;0.50;;;22.30;99.90;;;;;;5026237;28;20040;-69
2022/06/09 11:40:14;;;;;;;10.82;1.00;;;22.10;99.90;;;;;;5006511;28;20578;-69
2022/06/09 11:43:00;;;;;;;3.15;0.77;;;22.10;99.90;;;;;;5039311;23;20072;-67
2022/06/09 11:45:54;;;;;;;3.10;0.47;;;22.00;99.90;;;;;;5000798;28;20377;-67
2022/06/09 11:48:38;;;;;;;4.25;0.88;;;21.70;99.90;;;;;;5004616;28;20501;-68
2022/06/09 11:51:05;;;;;;;4.75;1.17;;;21.70;99.90;;;;;;5000907;28;20034;-67
2022/06/09 11:53:51;;;;;;;2.00;0.55;;;21.60;99.90;;;;;;5000463;28;20037;-69
2022/06/09 11:56:43;;;;;;;9.93;1.10;;;21.80;99.90;;;;;;5004199;28;20513;-69
2022/06/09 11:59:11;;;;;;;2.58;0.90;;;21.90;99.90;;;;;;5000383;28;20052;-71
2022/06/09 12:01:39;;;;;;;2.50;1.05;;;22.00;99.90;;;;;;5002497;28;20049;-68
2022/06/09 12:04:17;;;;;;;5.90;1.23;;;22.10;99.90;;;;;;5001500;28;20069;-68
2022/06/09 12:06:46;;;;;;;6.82;1.10;;;22.30;99.90;;;;;;4996815;28;20039;-67
2022/06/09 12:09:42;;;;;;;5.35;0.55;;;22.40;99.90;;;;;;5001783;28;20057;-69
2022/06/09 12:12:23;;;;;;;2.85;0.82;;;22.40;99.90;;;;;;5004542;28;20565;-72
2022/06/09 12:15:11;;;;;;;3.53;0.85;;;22.50;99.90;;;;;;5003445;28;20033;-72
2022/06/09 12:17:38;;;;;;;3.05;0.73;;;22.40;99.90;;;;;;4997107;28;20037;-69
2022/06/09 12:20:25;;;;;;;7.63;1.15;;;22.50;99.90;;;;;;5001297;28;20034;-68
2022/06/09 12:23:04;;;;;;;9.48;1.13;;;22.60;99.90;;;;;;4998728;28;20481;-69
2022/06/09 12:25:36;;;;;;;4.43;0.68;;;22.40;98.90;;;;;;4985440;28;20429;-69
2022/06/09 12:28:26;;;;;;;7.25;0.82;;;22.30;99.70;;;;;;4983069;28;20114;-69
2022/06/09 12:31:09;;;;;;;8.93;1.20;;;22.20;99.90;;;;;;4998578;28;20038;-69
2022/06/09 12:33:37;;;;;;;3.70;0.55;;;22.30;99.90;;;;;;4999915;28;20048;-68
2022/06/09 12:36:08;;;;;;;8.63;1.25;;;22.40;99.90;;;;;;5004532;28;20490;-68
2022/06/09 12:38:41;;;;;;;22.45;1.13;;;22.40;99.90;;;;;;4984904;28;20037;-68
2022/06/09 12:41:30;;;;;;;3.58;0.75;;;22.50;99.90;;;;;;4982863;28;20034;-69
2022/06/09 12:44:02;;;;;;;6.28;1.02;;;22.50;99.90;;;;;;4982261;28;20157;-68
2022/06/09 12:46:30;;;;;;;8.27;1.00;;;22.40;99.80;;;;;;4981809;28;20034;-68
2022/06/09 12:48:56;;;;;;;2.03;0.60;;;22.10;99.70;;;;;;4985236;28;20149;-67
2022/06/09 12:51:29;;;;;;;2.70;0.70;;;22.10;99.90;;;;;;5001975;28;20388;-68
2022/06/09 12:54:04;;;;;;;6.15;1.15;;;22.00;99.90;;;;;;4999689;28;20480;-69
2022/06/09 12:56:41;;;;;;;9.75;1.02;;;21.90;99.90;;;;;;4984363;28;20068;-69
2022/06/09 12:59:29;;;;;;;7.85;0.77;;;22.00;99.90;;;;;;5001396;28;20311;-69
2022/06/09 13:02:00;;;;;;;6.70;1.23;;;22.00;99.70;;;;;;4982478;28;20048;-72
2022/06/09 13:04:28;;;;;;;5.97;1.02;;;21.70;99.90;;;;;;4980108;28;20049;-67
2022/06/09 13:06:56;;;;;;;6.05;0.90;;;21.70;99.90;;;;;;5002212;28;20398;-68
2022/06/09 13:09:32;;;;;;;5.20;0.60;;;21.80;99.90;;;;;;5001360;28;20030;-73
2022/06/09 13:14:50;;;;;;;5.15;0.45;;;21.90;99.40;;;;;;5004534;28;20040;-71
2022/06/09 13:17:26;;;;;;;1.95;0.43;;;21.70;99.50;;;;;;5005021;28;20026;-68
2022/06/09 13:20:03;;;;;;;7.05;0.90;;;21.60;99.90;;;;;;4985259;28;20401;-71
2022/06/09 13:22:29;;;;;;;4.93;1.30;;;21.70;99.90;;;;;;5008319;28;20525;-72
2022/06/09 13:24:56;;;;;;;5.75;1.00;;;21.60;99.80;;;;;;5004137;28;20485;-68
2022/06/09 13:27:28;;;;;;;8.93;0.93;;;21.60;99.90;;;;;;5006638;28;20030;-69
2022/06/09 13:30:01;;;;;;;5.88;1.05;;;21.70;99.90;;;;;;5005117;28;20452;-70
2022/06/09 13:32:47;;;;;;;5.82;1.10;;;21.90;99.90;;;;;;5002333;28;20050;-68
2022/06/09 13:35:28;;;;;;;2.05;0.40;;;21.80;98.50;;;;;;5004594;28;20037;-70
2022/06/09 13:38:20;;;;;;;5.57;0.52;;;21.70;99.90;;;;;;4986148;28;20046;-69
2022/06/09 13:40:53;;;;;;;3.03;1.13;;;21.80;99.90;;;;;;5006452;28;20333;-68